Pagrindinis puslapis
METAR-TAF:

METAR-TAF

Oro uostai :

Kampos dos Goitakazesas, Rio de Janeiro, Brazilija

platuma: 21-45S, ilguma: 041-20W, Aukštis: 11 m

Dabartinis oras

Ataskaita buvo paskelbta 1 valandą ir 58 minutes, ne 21:00 UTC
Vėjas 4 kt iš Rytų/Šiaurės Rytų
Temperatūra 22°C
Drėgmė 78%
Slėgis 1018 hPa
Matomumas 10 km arba daugiau
nėra debesų žemiau 1500 m ir nėra kamuolinių lietaus debesų

METAR: SBCP 302100Z 07004KT CAVOK 22/18 Q1018

Laikas: 19:58 (22:58 UTC)

Prognozė

Ataskaita buvo paskelbta 7 valandos ir 58 minutes, ne 15:00 UTC
Prognozė galioja nuo 30 metu 18 UTC su 31 metu 06 UTC
Vėjas 9 kt iš Šiaurės/Šiaurės Rytų
Matomumas 10 km arba daugiau
Mažai debesys ne aukštis 2000 ft
Tapsmas
nuo 31 metu 04 UTC su 31 metu 05 UTC
Vėjas 7 kt iš Šiaurės Vakarų

TAF: SBCP 301500Z 3018/3106 03009KT 9999 FEW020 TX25/3019Z TN19/3105Z BECMG 3104/3105 32007KT RMK PEI

Orai ataskaitas ir orų prognozės (METAR, TAF).

turimą stotys yra geltonos ir raudonos taškus žemėlapyje.

Perkelti pele per norėdami pamatyti stoties vardą.

Tada spustelėkite, norėdami matyti oro stebėjimo ir prognozės.

Norėdami pakeisti žemėlapį: spustelėkite ant žalios mygtukų su juodo kryžiaus žemyn,; žalią mygtuką su brūkšneliu, jei norite nutolinti; arba žalių rodyklių gretimoms žemėlapius.


METAR-TAF: